PILOTS ONLINE: 772    ATC ONLINE: 198

KTRM

Jacqueline Cochran Regional Airport

Location

City Palm Springs
Country  United States
Latitude 33° 37' 36" N
Longitude 116° 9' 36" W
Elevation -115 ft
Type Medium Airport

Map

Weather

METAR
2014/10/25 19:52
KTRM 251952Z AUTO VRB03KT 10SM CLR 34/09 A2990 RMK AO2 SLP126 T03390094 TSNO
TAF
2014/10/25 18:24
TAF KTRM 251721Z 2518/2618 VRB06KT P6SM SCT100 
     FM260100 33011KT P6SM SCT100 
     FM261200 33007KT P6SM SCT200

Runways

12/30 4995 ft / 100 ft
17/35 8500 ft / 150 ft

Outbound flights

Callsign Flying to Pilot ATD/STD ETA Aircraft

Inbound flights

Callsign Flying from Pilot ATD ETA Aircraft